swiftype.com alexa rank chart, swiftype.com alexa rank daily changes

swiftype.com alexa rank chart, swiftype.com alexa rank daily changes

swiftype.com
Actual rank:
70 888

RANK HISTORY

Date Rank Diff
2017/06/27 70 888 +1 958
2017/06/26 68 930 +1 383
2017/06/25 67 547 +643
2017/06/24 66 904 -221
2017/06/23 67 125 -1 677
2017/06/22 68 802 -1 372
2017/06/21 70 174 -202
2017/06/20 70 376 +686
2017/06/19 69 690 +2 157
2017/06/18 67 533 -66
2017/06/17 67 599 -2 056
2017/06/16 69 655 -1 452
2017/06/15 71 107 -1 855
2017/06/14 72 962 -850
2017/06/13 73 812 +2 157
2017/06/12 71 655 +1 813
2017/06/11 69 842 +566
2017/06/10 69 276 -848
2017/06/09 70 124 -3 109
2017/06/08 73 233 -3 300
2017/06/07 76 533 -1 193
2017/06/06 77 726 +1 820
2017/06/05 75 906 +1 388
2017/06/04 74 518 -809
2017/06/03 75 327 -110
2017/06/02 75 437 -1 721
2017/06/01 77 158 +38
2017/05/31 77 120 +965
2017/05/30 76 155 +1 178
2017/05/29 74 977 +2 153
2017/05/28 72 824 -861
2017/05/27 73 685 -118
2017/05/26 73 803 -1 172
2017/05/25 74 975 -3 353
2017/05/24 78 328 -1 480
2017/05/23 79 808 +2 683
2017/05/22 77 125 +2 281
2017/05/21 74 844 +79
2017/05/20 74 765 +733
2017/05/19 74 032 +40
2017/05/18 73 992 -2 176
2017/05/17 76 168 -46
2017/05/16 76 214 +2 197
2017/05/15 74 017 -288
2017/05/14 74 305 -184
2017/05/13 74 489 -1 741
2017/05/12 76 230 -1 113
2017/05/11 77 343 -2 997
2017/05/10 80 340 -661
2017/05/09 81 001 +2 647
2017/05/08 78 354 +199
2017/05/07 78 155 +1 094
2017/05/06 77 061 +1 693
2017/05/05 75 368 -145
2017/05/04 75 513 -1 105
2017/05/03 76 618 -2 522
2017/05/02 79 140 +1 388
2017/05/01 77 752 +451
2017/04/30 77 301 -950
2017/04/29 78 251 -1 871
2017/04/28 80 122

WIDGET FOR YOUR SITE

DOMAINS WITH THE NEAREST RANK

Domain Rank
getvid.co 70 883
hostinger.fr 70 884
tompda.com 70 885
hcl.hr 70 886
diariodaweb.com 70 887
swiftype.com 70 888
speedrunslive.com 70 889
bilder-upload.eu 70 890
bhartiseva.com 70 891
livingelectro.com 70 892
zocai.com 70 893

DOMAINS WITH THE NEAREST RANK BY TLD .com

Domain Rank
unitedrentals.com 70 873
wpbnavi.com 70 876
esllibrary.com 70 877
tompda.com 70 885
diariodaweb.com 70 887
swiftype.com 70 888
speedrunslive.com 70 889
bhartiseva.com 70 891
livingelectro.com 70 892
zocai.com 70 893
bggd.com 70 894